SWA1755 KMSY-KAUS
Flight info
| Callsign | SWA1755 |
|---|---|
| Flight time | 1h 10m |
| Altitude | 34000 |
| Route | LFT LCH WEEED WLEEE7 |
| Aircraft | B737/M-SADE2E3GIJ4RWZ/LB1D1 |
Departure
| Time | 2026-05-08 04:58 |
|---|---|
| Airport | Louis Armstrong New Orleans International Airport (KMSY) |
Arrival
| Time | 2026-05-08 06:08 |
|---|---|
| Airport | Austin Bergstrom International Airport (KAUS) |
| Time | Latitude | Longitude | Altitude | Speed | Heading |
|---|---|---|---|---|---|
| 2026-05-08 04:23 | 29.99373 | -90.25755 | 5 ft | 0 kts | 102° |
| 2026-05-08 04:49 | 29.99377 | -90.25776 | 7 ft | 4 kts | 100° |
| 2026-05-08 04:49 | 29.99382 | -90.25807 | 6 ft | 4 kts | 100° |
| 2026-05-08 04:49 | 29.99388 | -90.25837 | 3 ft | 4 kts | 112° |
| 2026-05-08 04:50 | 29.99390 | -90.25846 | 3 ft | 4 kts | 127° |
| 2026-05-08 04:50 | 29.99369 | -90.25836 | 4 ft | 4 kts | 181° |
| 2026-05-08 04:50 | 29.99351 | -90.25853 | 3 ft | 4 kts | 232° |
| 2026-05-08 04:50 | 29.99346 | -90.25861 | 2 ft | 0 kts | 238° |
| 2026-05-08 04:53 | 29.99343 | -90.25869 | 2 ft | 3 kts | 244° |
| 2026-05-08 04:53 | 29.99348 | -90.25922 | 3 ft | 10 kts | 285° |
| 2026-05-08 04:53 | 29.99372 | -90.26022 | 2 ft | 16 kts | 285° |
| 2026-05-08 04:53 | 29.99410 | -90.26182 | 8 ft | 24 kts | 285° |
| 2026-05-08 04:54 | 29.99459 | -90.26384 | 7 ft | 29 kts | 285° |
| 2026-05-08 04:54 | 29.99512 | -90.26603 | 10 ft | 27 kts | 286° |
| 2026-05-08 04:54 | 29.99562 | -90.26807 | 10 ft | 26 kts | 285° |
| 2026-05-08 04:54 | 29.99608 | -90.26998 | 11 ft | 24 kts | 285° |
| 2026-05-08 04:55 | 29.99656 | -90.27196 | 6 ft | 27 kts | 285° |
| 2026-05-08 04:55 | 29.99706 | -90.27405 | 3 ft | 26 kts | 286° |
| 2026-05-08 04:55 | 29.99748 | -90.27581 | 3 ft | 16 kts | 282° |
| 2026-05-08 04:55 | 29.99690 | -90.27673 | 1 ft | 17 kts | 198° |
| 2026-05-08 04:56 | 29.99576 | -90.27721 | -1 ft | 18 kts | 221° |
| 2026-05-08 04:56 | 29.99481 | -90.27801 | 1 ft | 17 kts | 208° |
| 2026-05-08 04:56 | 29.99478 | -90.27926 | 4 ft | 17 kts | 286° |
| 2026-05-08 04:56 | 29.99507 | -90.28052 | 6 ft | 16 kts | 285° |
| 2026-05-08 04:57 | 29.99546 | -90.28167 | 6 ft | 15 kts | 316° |
| 2026-05-08 04:57 | 29.99646 | -90.28162 | 6 ft | 13 kts | 23° |
| 2026-05-08 04:57 | 29.99647 | -90.28098 | 5 ft | 7 kts | 105° |
| 2026-05-08 04:57 | 29.99582 | -90.27834 | 2 ft | 73 kts | 105° |
| 2026-05-08 04:58 | 29.99379 | -90.26985 | 10 ft | 143 kts | 103° |
| 2026-05-08 04:58 | 29.99060 | -90.25790 | 434 ft | 161 kts | 104° |
| 2026-05-08 04:58 | 29.98726 | -90.24516 | 1194 ft | 164 kts | 104° |
| 2026-05-08 04:58 | 29.98446 | -90.23267 | 2001 ft | 165 kts | 105° |
| 2026-05-08 04:59 | 29.98157 | -90.21926 | 2572 ft | 183 kts | 105° |
| 2026-05-08 04:59 | 29.97830 | -90.20402 | 2935 ft | 211 kts | 105° |
| 2026-05-08 04:59 | 29.97462 | -90.18629 | 3220 ft | 242 kts | 107° |
| 2026-05-08 04:59 | 29.96635 | -90.16853 | 3604 ft | 263 kts | 136° |
| 2026-05-08 05:00 | 29.95078 | -90.15729 | 4325 ft | 268 kts | 166° |
| 2026-05-08 05:00 | 29.93234 | -90.15579 | 5151 ft | 269 kts | 193° |
| 2026-05-08 05:00 | 29.91552 | -90.16460 | 6276 ft | 268 kts | 220° |
| 2026-05-08 05:00 | 29.90423 | -90.18129 | 7424 ft | 266 kts | 248° |
| 2026-05-08 05:01 | 29.90087 | -90.20205 | 8575 ft | 266 kts | 272° |
| 2026-05-08 05:01 | 29.90341 | -90.22326 | 9702 ft | 268 kts | 278° |
| 2026-05-08 05:01 | 29.90699 | -90.24458 | 10592 ft | 278 kts | 279° |
| 2026-05-08 05:01 | 29.91105 | -90.26747 | 10900 ft | 307 kts | 279° |
| 2026-05-08 05:02 | 29.91554 | -90.29280 | 11122 ft | 335 kts | 279° |
| 2026-05-08 05:02 | 29.92035 | -90.31996 | 11527 ft | 353 kts | 279° |
| 2026-05-08 05:02 | 29.92526 | -90.34793 | 12317 ft | 357 kts | 279° |
| 2026-05-08 05:02 | 29.93015 | -90.37597 | 13280 ft | 356 kts | 279° |
| 2026-05-08 05:03 | 29.93506 | -90.40395 | 14127 ft | 357 kts | 278° |
| 2026-05-08 05:03 | 29.93980 | -90.43222 | 14807 ft | 361 kts | 279° |
| 2026-05-08 05:03 | 29.94492 | -90.46069 | 15503 ft | 364 kts | 278° |
| 2026-05-08 05:03 | 29.94979 | -90.48938 | 16218 ft | 366 kts | 278° |
| 2026-05-08 05:04 | 29.95460 | -90.51824 | 16921 ft | 368 kts | 278° |
| 2026-05-08 05:04 | 29.95942 | -90.54728 | 17611 ft | 370 kts | 278° |
| 2026-05-08 05:04 | 29.96428 | -90.57649 | 18268 ft | 372 kts | 278° |
| 2026-05-08 05:04 | 29.96918 | -90.60589 | 18820 ft | 375 kts | 278° |
| 2026-05-08 05:05 | 29.97413 | -90.63558 | 19354 ft | 378 kts | 278° |
| 2026-05-08 05:05 | 29.97905 | -90.66508 | 19889 ft | 381 kts | 278° |
| 2026-05-08 05:05 | 29.98415 | -90.69560 | 20388 ft | 384 kts | 278° |
| 2026-05-08 05:05 | 29.98911 | -90.72540 | 20879 ft | 387 kts | 278° |
| 2026-05-08 05:06 | 29.99423 | -90.75608 | 21361 ft | 389 kts | 278° |
| 2026-05-08 05:06 | 29.99934 | -90.78685 | 21826 ft | 393 kts | 277° |
| 2026-05-08 05:06 | 30.00450 | -90.81793 | 22259 ft | 396 kts | 277° |
| 2026-05-08 05:06 | 30.00970 | -90.84924 | 22708 ft | 399 kts | 277° |
| 2026-05-08 05:07 | 30.01491 | -90.88072 | 23146 ft | 401 kts | 277° |
| 2026-05-08 05:07 | 30.02016 | -90.91244 | 23558 ft | 404 kts | 277° |
| 2026-05-08 05:07 | 30.02543 | -90.94436 | 23903 ft | 406 kts | 277° |
| 2026-05-08 05:07 | 30.03072 | -90.97642 | 24270 ft | 407 kts | 277° |
| 2026-05-08 05:08 | 30.03602 | -91.00858 | 24633 ft | 408 kts | 277° |
| 2026-05-08 05:08 | 30.04131 | -91.04078 | 24980 ft | 410 kts | 277° |
| 2026-05-08 05:08 | 30.04662 | -91.07315 | 25310 ft | 411 kts | 277° |
| 2026-05-08 05:08 | 30.05194 | -91.10562 | 25636 ft | 412 kts | 277° |
| 2026-05-08 05:09 | 30.05726 | -91.13814 | 25957 ft | 414 kts | 277° |
| 2026-05-08 05:09 | 30.06261 | -91.17087 | 26261 ft | 416 kts | 277° |
| 2026-05-08 05:09 | 30.06797 | -91.20377 | 26548 ft | 417 kts | 277° |
| 2026-05-08 05:09 | 30.07333 | -91.23673 | 26844 ft | 419 kts | 277° |
| 2026-05-08 05:10 | 30.07871 | -91.26984 | 27138 ft | 420 kts | 277° |
| 2026-05-08 05:10 | 30.08947 | -91.33623 | 27684 ft | 422 kts | 277° |
| 2026-05-08 05:10 | 30.09478 | -91.36907 | 27979 ft | 422 kts | 277° |
| 2026-05-08 05:11 | 30.10014 | -91.40224 | 28370 ft | 420 kts | 277° |
| 2026-05-08 05:11 | 30.10549 | -91.43537 | 28814 ft | 417 kts | 277° |
| 2026-05-08 05:11 | 30.11078 | -91.46821 | 29327 ft | 414 kts | 277° |
| 2026-05-08 05:11 | 30.11601 | -91.50076 | 29848 ft | 411 kts | 277° |
| 2026-05-08 05:12 | 30.12121 | -91.53316 | 30287 ft | 409 kts | 277° |
| 2026-05-08 05:12 | 30.12637 | -91.56542 | 30669 ft | 408 kts | 277° |
| 2026-05-08 05:12 | 30.13151 | -91.59760 | 31073 ft | 407 kts | 277° |
| 2026-05-08 05:12 | 30.13662 | -91.62966 | 31505 ft | 405 kts | 277° |
| 2026-05-08 05:13 | 30.14171 | -91.66157 | 31949 ft | 403 kts | 277° |
| 2026-05-08 05:13 | 30.14676 | -91.69335 | 32396 ft | 401 kts | 276° |
| 2026-05-08 05:13 | 30.15179 | -91.72500 | 32851 ft | 399 kts | 276° |
| 2026-05-08 05:13 | 30.15678 | -91.75648 | 33298 ft | 398 kts | 276° |
| 2026-05-08 05:14 | 30.16174 | -91.78783 | 33689 ft | 397 kts | 276° |
| 2026-05-08 05:14 | 30.16670 | -91.81931 | 34020 ft | 398 kts | 276° |
| 2026-05-08 05:14 | 30.17166 | -91.85079 | 34001 ft | 399 kts | 276° |
| 2026-05-08 05:15 | 30.18156 | -91.91359 | 34034 ft | 397 kts | 276° |
| 2026-05-08 05:15 | 30.19120 | -91.97603 | 34040 ft | 396 kts | 274° |
| 2026-05-08 05:16 | 30.19257 | -92.03909 | 34045 ft | 392 kts | 264° |
| 2026-05-08 05:16 | 30.18957 | -92.10206 | 34041 ft | 393 kts | 264° |
| 2026-05-08 05:17 | 30.18662 | -92.16513 | 34033 ft | 393 kts | 264° |
| 2026-05-08 05:17 | 30.18378 | -92.22824 | 34036 ft | 393 kts | 264° |
| 2026-05-08 05:18 | 30.18096 | -92.29133 | 34033 ft | 393 kts | 264° |
| 2026-05-08 05:18 | 30.17812 | -92.35450 | 34035 ft | 394 kts | 264° |
| 2026-05-08 05:19 | 30.17524 | -92.41778 | 34038 ft | 394 kts | 264° |
| 2026-05-08 05:19 | 30.17234 | -92.48100 | 34036 ft | 394 kts | 264° |
| 2026-05-08 05:20 | 30.16941 | -92.54420 | 34040 ft | 394 kts | 264° |
| 2026-05-08 05:20 | 30.16644 | -92.60741 | 34037 ft | 394 kts | 264° |
| 2026-05-08 05:21 | 30.16345 | -92.67055 | 34039 ft | 394 kts | 264° |
| 2026-05-08 05:21 | 30.16042 | -92.73379 | 34037 ft | 394 kts | 264° |
| 2026-05-08 05:22 | 30.15737 | -92.79691 | 34044 ft | 393 kts | 264° |
| 2026-05-08 05:22 | 30.15429 | -92.85994 | 34049 ft | 393 kts | 264° |
| 2026-05-08 05:23 | 30.15118 | -92.92313 | 34040 ft | 393 kts | 264° |
| 2026-05-08 05:23 | 30.14807 | -92.98566 | 34042 ft | 393 kts | 264° |
| 2026-05-08 05:24 | 30.14490 | -93.04880 | 34035 ft | 393 kts | 264° |
| 2026-05-08 05:24 | 30.14152 | -93.11177 | 34035 ft | 392 kts | 262° |
| 2026-05-08 05:25 | 30.13526 | -93.17426 | 34050 ft | 391 kts | 261° |
| 2026-05-08 05:25 | 30.12832 | -93.23669 | 34048 ft | 391 kts | 261° |
| 2026-05-08 05:26 | 30.12145 | -93.29901 | 34047 ft | 391 kts | 261° |
| 2026-05-08 05:26 | 30.11467 | -93.36136 | 34050 ft | 391 kts | 261° |
| 2026-05-08 05:27 | 30.10790 | -93.42374 | 34051 ft | 391 kts | 261° |
| 2026-05-08 05:27 | 30.10111 | -93.48615 | 34043 ft | 392 kts | 261° |
| 2026-05-08 05:28 | 30.09430 | -93.54854 | 34036 ft | 391 kts | 261° |
| 2026-05-08 05:28 | 30.08747 | -93.61084 | 34038 ft | 391 kts | 261° |
| 2026-05-08 05:29 | 30.08060 | -93.67320 | 34037 ft | 392 kts | 261° |
| 2026-05-08 05:29 | 30.07370 | -93.73555 | 34025 ft | 392 kts | 261° |
| 2026-05-08 05:30 | 30.06683 | -93.79737 | 34050 ft | 391 kts | 261° |
| 2026-05-08 05:30 | 30.05988 | -93.85971 | 34054 ft | 391 kts | 260° |
| 2026-05-08 05:31 | 30.05290 | -93.92192 | 34044 ft | 391 kts | 260° |
| 2026-05-08 05:31 | 30.04587 | -93.98431 | 34028 ft | 393 kts | 260° |
| 2026-05-08 05:32 | 30.03880 | -94.04686 | 34027 ft | 394 kts | 260° |
| 2026-05-08 05:32 | 30.03167 | -94.10960 | 34010 ft | 394 kts | 260° |
| 2026-05-08 05:33 | 30.02453 | -94.17229 | 34011 ft | 395 kts | 260° |
| 2026-05-08 05:33 | 30.01741 | -94.23441 | 34014 ft | 395 kts | 260° |
| 2026-05-08 05:34 | 30.01019 | -94.29722 | 34007 ft | 394 kts | 260° |
| 2026-05-08 05:34 | 30.00294 | -94.35994 | 34008 ft | 394 kts | 260° |
| 2026-05-08 05:35 | 29.99568 | -94.42254 | 34012 ft | 394 kts | 260° |
| 2026-05-08 05:35 | 29.98839 | -94.48506 | 34009 ft | 394 kts | 259° |
| 2026-05-08 05:36 | 29.98107 | -94.54768 | 34012 ft | 394 kts | 259° |
| 2026-05-08 05:36 | 29.97372 | -94.61020 | 34004 ft | 394 kts | 259° |
| 2026-05-08 05:37 | 29.96759 | -94.66220 | 34004 ft | 394 kts | 259° |
| 2026-05-08 05:37 | 29.96017 | -94.72487 | 34004 ft | 394 kts | 259° |
| 2026-05-08 05:38 | 29.95273 | -94.78741 | 34006 ft | 394 kts | 259° |
| 2026-05-08 05:38 | 29.94526 | -94.84998 | 34001 ft | 394 kts | 259° |
| 2026-05-08 05:39 | 29.93777 | -94.91250 | 34007 ft | 394 kts | 259° |
| 2026-05-08 05:39 | 29.93025 | -94.97496 | 34012 ft | 394 kts | 259° |
| 2026-05-08 05:40 | 29.92270 | -95.03750 | 34001 ft | 394 kts | 259° |
| 2026-05-08 05:40 | 29.91512 | -95.09991 | 34004 ft | 393 kts | 259° |
| 2026-05-08 05:41 | 29.90751 | -95.16240 | 34011 ft | 393 kts | 259° |
| 2026-05-08 05:41 | 29.89988 | -95.22479 | 34012 ft | 393 kts | 259° |
| 2026-05-08 05:42 | 29.89226 | -95.28686 | 34017 ft | 393 kts | 259° |
| 2026-05-08 05:42 | 29.88451 | -95.34969 | 34011 ft | 393 kts | 259° |
| 2026-05-08 05:43 | 29.87679 | -95.41205 | 34008 ft | 393 kts | 259° |
| 2026-05-08 05:43 | 29.86904 | -95.47443 | 34003 ft | 393 kts | 259° |
| 2026-05-08 05:44 | 29.86127 | -95.53676 | 33995 ft | 393 kts | 259° |
| 2026-05-08 05:44 | 29.85347 | -95.59902 | 33996 ft | 393 kts | 259° |
| 2026-05-08 05:45 | 29.84562 | -95.66141 | 33988 ft | 393 kts | 259° |
| 2026-05-08 05:45 | 29.83776 | -95.72368 | 34006 ft | 393 kts | 258° |
| 2026-05-08 05:46 | 29.82986 | -95.78610 | 34015 ft | 394 kts | 258° |
| 2026-05-08 05:46 | 29.82198 | -95.84801 | 34022 ft | 394 kts | 258° |
| 2026-05-08 05:47 | 29.81403 | -95.91033 | 34018 ft | 393 kts | 258° |
| 2026-05-08 05:47 | 29.80604 | -95.97264 | 34018 ft | 394 kts | 258° |
| 2026-05-08 05:48 | 29.79801 | -96.03505 | 34004 ft | 394 kts | 258° |
| 2026-05-08 05:48 | 29.78998 | -96.09731 | 33982 ft | 394 kts | 258° |
| 2026-05-08 05:49 | 29.78190 | -96.15969 | 33948 ft | 394 kts | 258° |
| 2026-05-08 05:49 | 29.78109 | -96.22327 | 33261 ft | 409 kts | 270° |
| 2026-05-08 05:49 | 29.78414 | -96.25566 | 32442 ft | 406 kts | 271° |
| 2026-05-08 05:50 | 29.78706 | -96.28790 | 31524 ft | 405 kts | 270° |
| 2026-05-08 05:50 | 29.78970 | -96.32028 | 30535 ft | 407 kts | 270° |
| 2026-05-08 05:50 | 29.79216 | -96.35272 | 29443 ft | 408 kts | 270° |
| 2026-05-08 05:50 | 29.79456 | -96.38534 | 28296 ft | 409 kts | 270° |
| 2026-05-08 05:51 | 29.79695 | -96.41795 | 27197 ft | 409 kts | 270° |
| 2026-05-08 05:51 | 29.79935 | -96.45057 | 26203 ft | 407 kts | 270° |
| 2026-05-08 05:51 | 29.80174 | -96.48283 | 25341 ft | 403 kts | 271° |
| 2026-05-08 05:51 | 29.80410 | -96.51483 | 24483 ft | 399 kts | 271° |
| 2026-05-08 05:52 | 29.80760 | -96.54639 | 23648 ft | 400 kts | 279° |
| 2026-05-08 05:52 | 29.81745 | -96.57647 | 22684 ft | 405 kts | 291° |
| 2026-05-08 05:52 | 29.83306 | -96.60372 | 21799 ft | 411 kts | 303° |
| 2026-05-08 05:52 | 29.85218 | -96.62807 | 20976 ft | 408 kts | 307° |
| 2026-05-08 05:53 | 29.87169 | -96.65158 | 20156 ft | 404 kts | 307° |
| 2026-05-08 05:53 | 29.89108 | -96.67476 | 19349 ft | 400 kts | 307° |
| 2026-05-08 05:53 | 29.91018 | -96.69783 | 18585 ft | 396 kts | 307° |
| 2026-05-08 05:53 | 29.92903 | -96.72086 | 17723 ft | 393 kts | 307° |
| 2026-05-08 05:54 | 29.94757 | -96.74373 | 16900 ft | 389 kts | 307° |
| 2026-05-08 05:54 | 29.96596 | -96.76651 | 16076 ft | 385 kts | 308° |
| 2026-05-08 05:54 | 29.98413 | -96.78907 | 15274 ft | 381 kts | 308° |
| 2026-05-08 05:54 | 30.00207 | -96.81137 | 14498 ft | 378 kts | 309° |
| 2026-05-08 05:55 | 30.01959 | -96.83311 | 14267 ft | 360 kts | 309° |
| 2026-05-08 05:55 | 30.03625 | -96.85375 | 14121 ft | 343 kts | 308° |
| 2026-05-08 05:55 | 30.05037 | -96.87479 | 13901 ft | 322 kts | 294° |
| 2026-05-08 05:55 | 30.05866 | -96.89791 | 13508 ft | 312 kts | 287° |
| 2026-05-08 05:56 | 30.06562 | -96.92146 | 13122 ft | 309 kts | 285° |
| 2026-05-08 05:56 | 30.07240 | -96.94498 | 12740 ft | 309 kts | 285° |
| 2026-05-08 05:56 | 30.07937 | -96.96893 | 12363 ft | 311 kts | 286° |
| 2026-05-08 05:56 | 30.08637 | -96.99265 | 11979 ft | 314 kts | 286° |
| 2026-05-08 05:57 | 30.09340 | -97.01621 | 11600 ft | 315 kts | 286° |
| 2026-05-08 05:57 | 30.10058 | -97.04014 | 11211 ft | 316 kts | 286° |
| 2026-05-08 05:57 | 30.10661 | -97.06022 | 10879 ft | 310 kts | 286° |
| 2026-05-08 05:57 | 30.11204 | -97.08398 | 10474 ft | 301 kts | 272° |
| 2026-05-08 05:58 | 30.11164 | -97.10769 | 10120 ft | 289 kts | 265° |
| 2026-05-08 05:58 | 30.11033 | -97.12960 | 9903 ft | 273 kts | 264° |
| 2026-05-08 05:58 | 30.10897 | -97.15095 | 9467 ft | 266 kts | 264° |
| 2026-05-08 05:58 | 30.10765 | -97.17196 | 9090 ft | 263 kts | 264° |
| 2026-05-08 05:59 | 30.10638 | -97.19296 | 8754 ft | 261 kts | 264° |
| 2026-05-08 05:59 | 30.10515 | -97.21389 | 8420 ft | 262 kts | 264° |
| 2026-05-08 05:59 | 30.10393 | -97.23490 | 8088 ft | 263 kts | 264° |
| 2026-05-08 05:59 | 30.10275 | -97.25587 | 7763 ft | 260 kts | 264° |
| 2026-05-08 06:00 | 30.10157 | -97.27644 | 7456 ft | 253 kts | 264° |
| 2026-05-08 06:00 | 30.10044 | -97.29664 | 7140 ft | 252 kts | 264° |
| 2026-05-08 06:00 | 30.09929 | -97.31679 | 6821 ft | 252 kts | 264° |
| 2026-05-08 06:00 | 30.09818 | -97.33704 | 6512 ft | 253 kts | 264° |
| 2026-05-08 06:01 | 30.09717 | -97.35711 | 6174 ft | 247 kts | 264° |
| 2026-05-08 06:01 | 30.09622 | -97.37667 | 5849 ft | 240 kts | 264° |
| 2026-05-08 06:01 | 30.09533 | -97.39564 | 5544 ft | 233 kts | 264° |
| 2026-05-08 06:01 | 30.09412 | -97.41405 | 5255 ft | 228 kts | 263° |
| 2026-05-08 06:02 | 30.09283 | -97.43218 | 4983 ft | 225 kts | 263° |
| 2026-05-08 06:02 | 30.09153 | -97.44995 | 4715 ft | 218 kts | 263° |
| 2026-05-08 06:02 | 30.09026 | -97.46706 | 4448 ft | 211 kts | 263° |
| 2026-05-08 06:02 | 30.08902 | -97.48396 | 4184 ft | 212 kts | 263° |
| 2026-05-08 06:03 | 30.08774 | -97.50096 | 4044 ft | 215 kts | 263° |
| 2026-05-08 06:03 | 30.08644 | -97.51828 | 4014 ft | 217 kts | 263° |
| 2026-05-08 06:03 | 30.08510 | -97.53552 | 3989 ft | 214 kts | 263° |
| 2026-05-08 06:03 | 30.08384 | -97.55271 | 3994 ft | 215 kts | 263° |
| 2026-05-08 06:04 | 30.08275 | -97.56994 | 3998 ft | 216 kts | 263° |
| 2026-05-08 06:04 | 30.08154 | -97.58721 | 4001 ft | 216 kts | 263° |
| 2026-05-08 06:04 | 30.08029 | -97.60453 | 3994 ft | 216 kts | 263° |
| 2026-05-08 06:04 | 30.07901 | -97.62199 | 3768 ft | 222 kts | 263° |
| 2026-05-08 06:05 | 30.07802 | -97.63940 | 3651 ft | 207 kts | 264° |
| 2026-05-08 06:05 | 30.07725 | -97.65522 | 3592 ft | 190 kts | 272° |
| 2026-05-08 06:05 | 30.08252 | -97.66923 | 2996 ft | 206 kts | 317° |
| 2026-05-08 06:05 | 30.09588 | -97.67553 | 2301 ft | 217 kts | 2° |
| 2026-05-08 06:06 | 30.10926 | -97.66923 | 1898 ft | 203 kts | 47° |
| 2026-05-08 06:06 | 30.11839 | -97.65794 | 1658 ft | 185 kts | 35° |
| 2026-05-08 06:06 | 30.13021 | -97.65575 | 1476 ft | 169 kts | 350° |
| 2026-05-08 06:06 | 30.14077 | -97.65671 | 1273 ft | 150 kts | 15° |
| 2026-05-08 06:07 | 30.15031 | -97.65503 | 1200 ft | 134 kts | 356° |
| 2026-05-08 06:07 | 30.15967 | -97.65657 | 1026 ft | 136 kts | 354° |
| 2026-05-08 06:07 | 30.16901 | -97.65691 | 806 ft | 134 kts | 359° |
| 2026-05-08 06:07 | 30.17835 | -97.65724 | 611 ft | 133 kts | 359° |
| 2026-05-08 06:08 | 30.18732 | -97.65747 | 528 ft | 119 kts | 359° |
| 2026-05-08 06:08 | 30.19416 | -97.65765 | 527 ft | 77 kts | 359° |
| 2026-05-08 06:08 | 30.19764 | -97.65809 | 524 ft | 40 kts | 335° |
| 2026-05-08 06:08 | 30.19917 | -97.65927 | 526 ft | 22 kts | 294° |
| 2026-05-08 06:09 | 30.19919 | -97.66104 | 526 ft | 22 kts | 269° |
| 2026-05-08 06:09 | 30.19915 | -97.66276 | 526 ft | 21 kts | 268° |
| 2026-05-08 06:09 | 30.19948 | -97.66391 | 526 ft | 13 kts | 351° |
| 2026-05-08 06:09 | 30.20009 | -97.66393 | 526 ft | 8 kts | 357° |
| 2026-05-08 06:10 | 30.20064 | -97.66393 | 526 ft | 8 kts | 352° |
| 2026-05-08 06:10 | 30.20092 | -97.66440 | 526 ft | 9 kts | 271° |
| 2026-05-08 06:10 | 30.20087 | -97.66518 | 526 ft | 11 kts | 260° |
| 2026-05-08 06:10 | 30.20066 | -97.66610 | 526 ft | 13 kts | 259° |
| 2026-05-08 06:11 | 30.20060 | -97.66724 | 526 ft | 15 kts | 270° |
| 2026-05-08 06:11 | 30.20084 | -97.66779 | 526 ft | 5 kts | 6° |
| 2026-05-08 06:11 | 30.20116 | -97.66770 | 526 ft | 4 kts | 15° |
| 2026-05-08 06:11 | 30.20138 | -97.66762 | 526 ft | 2 kts | 16° |
| 2026-05-08 06:12 | 30.20141 | -97.66761 | 526 ft | 0 kts | 16° |